createdAt,value
2017-08-26T00:00:42.203Z,0
2017-08-26T00:01:52.478Z,0
2017-08-26T00:03:02.754Z,0
2017-08-26T00:04:12.378Z,0
2017-08-26T00:05:22.651Z,0
2017-08-26T00:06:32.920Z,0
2017-08-26T00:07:43.191Z,0
2017-08-26T00:08:52.815Z,0
2017-08-26T00:10:02.765Z,0
2017-08-26T00:11:13.042Z,0
2017-08-26T00:12:23.308Z,0
2017-08-26T00:13:33.580Z,0
2017-08-26T00:14:43.848Z,0
2017-08-26T00:15:54.121Z,0
2017-08-26T00:17:03.424Z,0
2017-08-26T00:18:13.698Z,0
2017-08-26T00:19:23.642Z,0
2017-08-26T00:20:33.917Z,0
2017-08-26T00:21:44.183Z,0
2017-08-26T00:22:53.813Z,0
2017-08-26T00:24:04.081Z,0
2017-08-26T00:25:14.031Z,0
2017-08-26T00:26:23.994Z,0
2017-08-26T00:27:34.268Z,0
2017-08-26T00:28:44.547Z,0
2017-08-26T00:29:54.490Z,0
2017-08-26T00:31:04.759Z,0
2017-08-26T00:32:15.029Z,0
2017-08-26T00:33:24.982Z,0
2017-08-26T00:34:35.253Z,0
2017-08-26T00:35:45.526Z,0
2017-08-26T00:36:55.149Z,0
2017-08-26T00:38:05.100Z,0
2017-08-26T00:39:14.724Z,0
2017-08-26T00:40:24.671Z,0
2017-08-26T00:41:34.624Z,0
2017-08-26T00:42:44.899Z,0
2017-08-26T00:43:54.843Z,0
2017-08-26T00:45:04.799Z,0
2017-08-26T00:46:15.065Z,0
2017-08-26T00:47:25.010Z,0
2017-08-26T00:48:34.960Z,0
2017-08-26T00:49:45.228Z,0
2017-08-26T00:50:55.500Z,0
2017-08-26T00:52:05.447Z,0
2017-08-26T00:53:15.723Z,0
2017-08-26T00:54:25.990Z,0
2017-08-26T00:55:35.615Z,0
2017-08-26T00:56:45.238Z,0
2017-08-26T00:57:55.185Z,0
2017-08-26T00:59:05.454Z,0
2017-08-26T01:00:15.719Z,0
2017-08-26T01:01:25.989Z,0
2017-08-26T01:02:35.613Z,0
2017-08-26T01:03:45.564Z,0
2017-08-26T01:04:55.511Z,0
2017-08-26T01:06:05.455Z,0
2017-08-26T01:07:15.726Z,0
2017-08-26T01:08:25.992Z,0
2017-08-26T01:09:36.264Z,0
2017-08-26T01:10:45.889Z,0
2017-08-26T01:11:56.161Z,0
2017-08-26T01:13:06.433Z,0
2017-08-26T01:14:16.705Z,0
2017-08-26T01:15:26.661Z,0
2017-08-26T01:16:36.942Z,0
2017-08-26T01:17:47.212Z,0
2017-08-26T01:18:57.492Z,0
2017-08-26T01:20:07.446Z,0
2017-08-26T01:21:17.713Z,0
2017-08-26T01:22:27.983Z,0
2017-08-26T01:23:38.248Z,0
2017-08-26T01:24:48.516Z,0
2017-08-26T01:25:58.473Z,0
2017-08-26T01:27:07.780Z,0
2017-08-26T01:28:18.050Z,0
2017-08-26T01:29:28.317Z,0
2017-08-26T01:30:38.594Z,0
2017-08-26T01:31:48.538Z,0
2017-08-26T01:32:58.844Z,0
2017-08-26T01:34:09.112Z,0
2017-08-26T01:35:19.060Z,0
2017-08-26T01:36:29.325Z,0
2017-08-26T01:37:39.283Z,0
2017-08-26T01:38:49.550Z,0
2017-08-26T01:39:59.498Z,0
2017-08-26T01:41:09.777Z,0
2017-08-26T01:42:19.760Z,0
2017-08-26T01:43:29.706Z,0
2017-08-26T01:44:39.973Z,0
2017-08-26T01:45:49.919Z,0
2017-08-26T01:47:00.196Z,0
2017-08-26T01:48:10.468Z,0
2017-08-26T01:49:20.738Z,0
2017-08-26T01:50:31.003Z,0
2017-08-26T01:51:41.279Z,0
2017-08-26T01:52:51.554Z,0
2017-08-26T01:54:01.499Z,0
2017-08-26T01:55:11.771Z,0
2017-08-26T01:56:21.719Z,0
2017-08-26T01:57:31.993Z,0
2017-08-26T01:58:42.259Z,0
2017-08-26T01:59:52.626Z,0
2017-08-26T02:01:02.908Z,0
2017-08-26T02:02:13.179Z,0
2017-08-26T02:03:23.449Z,0
2017-08-26T02:04:33.076Z,0
2017-08-26T02:05:42.708Z,0
2017-08-26T02:06:52.976Z,0
2017-08-26T02:08:02.932Z,0
2017-08-26T02:09:12.882Z,0
2017-08-26T02:10:23.149Z,0
2017-08-26T02:11:32.773Z,0
2017-08-26T02:12:42.717Z,0
2017-08-26T02:13:52.677Z,0
2017-08-26T02:15:02.303Z,0
2017-08-26T02:16:12.570Z,0
2017-08-26T02:17:22.838Z,0
2017-08-26T02:18:33.107Z,0
2017-08-26T02:19:43.373Z,0
2017-08-26T02:20:53.320Z,0
2017-08-26T02:22:03.589Z,0
2017-08-26T02:23:13.214Z,0
2017-08-26T02:24:23.160Z,0
2017-08-26T02:25:33.120Z,0
2017-08-26T02:26:43.393Z,0
2017-08-26T02:27:53.665Z,0
2017-08-26T02:29:03.288Z,0
2017-08-26T02:30:13.566Z,0
2017-08-26T02:31:23.511Z,0
2017-08-26T02:32:33.782Z,0
2017-08-26T02:33:44.053Z,0
2017-08-26T02:34:54.021Z,0
2017-08-26T02:36:03.646Z,0
2017-08-26T02:37:13.920Z,0
2017-08-26T02:38:24.192Z,0
2017-08-26T02:39:34.459Z,0
2017-08-26T02:40:46.744Z,0
2017-08-26T02:41:57.009Z,0
2017-08-26T02:43:07.276Z,0
2017-08-26T02:44:17.541Z,0
2017-08-26T02:45:27.815Z,0
2017-08-26T02:46:38.084Z,0
2017-08-26T02:47:48.358Z,0
2017-08-26T02:48:57.984Z,0
2017-08-26T02:50:07.305Z,0
2017-08-26T02:51:17.577Z,0
2017-08-26T02:52:27.845Z,0
2017-08-26T02:53:38.117Z,0
2017-08-26T02:54:48.381Z,0
2017-08-26T02:55:58.666Z,0
2017-08-26T02:57:08.930Z,0
2017-08-26T02:58:18.876Z,0
2017-08-26T02:59:29.183Z,0
2017-08-26T03:00:39.451Z,0
2017-08-26T03:01:49.716Z,0
2017-08-26T03:02:59.339Z,0
2017-08-26T03:04:09.616Z,0
2017-08-26T03:05:19.879Z,0
2017-08-26T03:06:30.159Z,0
2017-08-26T03:07:40.427Z,0
2017-08-26T03:08:50.694Z,0
2017-08-26T03:10:00.639Z,0
2017-08-26T03:11:10.907Z,0
2017-08-26T03:12:21.176Z,0
2017-08-26T03:13:31.444Z,4
2017-08-26T03:14:41.385Z,4
2017-08-26T03:15:51.331Z,0
2017-08-26T03:17:01.277Z,0
2017-08-26T03:18:11.548Z,4
2017-08-26T03:19:21.817Z,4
2017-08-26T03:20:32.087Z,4
2017-08-26T03:21:41.709Z,4
2017-08-26T03:22:51.982Z,4
2017-08-26T03:24:02.247Z,4
2017-08-26T03:25:12.513Z,8
2017-08-26T03:26:22.456Z,8
2017-08-26T03:27:32.734Z,12
2017-08-26T03:28:42.360Z,12
2017-08-26T03:29:52.630Z,12
2017-08-26T03:31:01.934Z,20
2017-08-26T03:32:12.211Z,20
2017-08-26T03:33:22.505Z,20
2017-08-26T03:34:32.773Z,24
2017-08-26T03:35:43.046Z,28
2017-08-26T03:36:52.988Z,32
2017-08-26T03:38:03.270Z,40
2017-08-26T03:39:13.533Z,40
2017-08-26T03:40:23.481Z,48
2017-08-26T03:41:33.742Z,56
2017-08-26T03:42:44.009Z,64
2017-08-26T03:43:54.272Z,68
2017-08-26T03:45:04.543Z,76
2017-08-26T03:46:14.804Z,80
2017-08-26T03:47:25.071Z,92
2017-08-26T03:48:35.017Z,100
2017-08-26T03:49:44.981Z,108
2017-08-26T03:50:55.252Z,120
2017-08-26T03:52:05.199Z,128
2017-08-26T03:53:15.466Z,136
2017-08-26T03:54:25.411Z,148
2017-08-26T03:55:35.684Z,160
2017-08-26T03:56:45.947Z,176
2017-08-26T03:57:56.213Z,188
2017-08-26T03:59:06.158Z,208
2017-08-26T04:00:16.109Z,216
2017-08-26T04:01:26.371Z,232
2017-08-26T04:02:36.649Z,248
2017-08-26T04:03:46.915Z,268
2017-08-26T04:04:57.187Z,288
2017-08-26T04:06:07.453Z,316
2017-08-26T04:07:16.760Z,336
2017-08-26T04:08:26.706Z,360
2017-08-26T04:09:36.971Z,384
2017-08-26T04:10:46.919Z,404
2017-08-26T04:11:57.183Z,428
2017-08-26T04:13:07.450Z,452
2017-08-26T04:14:17.395Z,476
2017-08-26T04:15:27.025Z,500
2017-08-26T04:16:37.291Z,520
2017-08-26T04:17:47.240Z,540
2017-08-26T04:18:57.507Z,560
2017-08-26T04:20:07.774Z,588
2017-08-26T04:21:18.041Z,612
2017-08-26T04:22:28.037Z,632
2017-08-26T04:23:38.301Z,664
2017-08-26T04:24:48.570Z,700
2017-08-26T04:25:58.513Z,740
2017-08-26T04:27:08.805Z,776
2017-08-26T04:28:18.746Z,812
2017-08-26T04:29:28.701Z,840
2017-08-26T04:30:38.646Z,864
2017-08-26T04:31:48.938Z,880
2017-08-26T04:32:58.884Z,900
2017-08-26T04:34:08.835Z,928
2017-08-26T04:35:19.110Z,956
2017-08-26T04:36:29.405Z,984
2017-08-26T04:37:39.668Z,1024
2017-08-26T04:38:49.943Z,1060
2017-08-26T04:39:59.889Z,1100
2017-08-26T04:41:10.155Z,1136
2017-08-26T04:42:20.098Z,1176
2017-08-26T04:43:30.377Z,1232
2017-08-26T04:44:40.644Z,1292
2017-08-26T04:45:50.268Z,1328
2017-08-26T04:47:00.217Z,1360
2017-08-26T04:48:10.159Z,1392
2017-08-26T04:49:20.107Z,1432
2017-08-26T04:50:30.055Z,1488
2017-08-26T04:51:40.324Z,1516
2017-08-26T04:52:50.272Z,1540
2017-08-26T04:53:59.904Z,1576
2017-08-26T04:55:09.853Z,1592
2017-08-26T04:56:20.130Z,1584
2017-08-26T04:57:30.407Z,1604
2017-08-26T04:58:40.677Z,1656
2017-08-26T04:59:50.944Z,1700
2017-08-26T05:01:00.916Z,1752
2017-08-26T05:02:11.197Z,1772
2017-08-26T05:03:21.478Z,1792
2017-08-26T05:04:31.745Z,1836
2017-08-26T05:05:42.019Z,1888
2017-08-26T05:06:52.299Z,1960
2017-08-26T05:08:01.607Z,1968
2017-08-26T05:09:11.881Z,1972
2017-08-26T05:10:21.839Z,1944
2017-08-26T05:11:31.783Z,1972
2017-08-26T05:12:42.051Z,2016
2017-08-26T05:13:51.996Z,2088
2017-08-26T05:15:01.949Z,2164
2017-08-26T05:16:11.251Z,2208
2017-08-26T05:17:21.519Z,2236
2017-08-26T05:18:31.851Z,2256
2017-08-26T05:19:41.796Z,2272
2017-08-26T05:20:52.080Z,2292
2017-08-26T05:22:02.027Z,2320
2017-08-26T05:23:11.675Z,2388
2017-08-26T05:24:21.619Z,2420
2017-08-26T05:25:31.885Z,2424
2017-08-26T05:26:42.155Z,2444
2017-08-26T05:27:52.424Z,2468
2017-08-26T05:29:02.370Z,2484
2017-08-26T05:30:12.636Z,2480
2017-08-26T05:31:22.908Z,2464
2017-08-26T05:32:33.175Z,2460
2017-08-26T05:33:43.442Z,2456
2017-08-26T05:34:53.390Z,2464
2017-08-26T05:36:03.663Z,2460
2017-08-26T05:37:13.294Z,2452
2017-08-26T05:38:23.562Z,2452
2017-08-26T05:39:33.517Z,2512
2017-08-26T05:40:43.785Z,2576
2017-08-26T05:41:54.306Z,2576
2017-08-26T05:43:04.263Z,2620
2017-08-26T05:44:14.537Z,2660
2017-08-26T05:45:24.808Z,2596
2017-08-26T05:46:35.080Z,2540
2017-08-26T05:47:45.348Z,2580
2017-08-26T05:48:55.618Z,2604
2017-08-26T05:50:05.564Z,2680
2017-08-26T05:51:15.514Z,2696
2017-08-26T05:52:25.790Z,2692
2017-08-26T05:53:35.738Z,2688
2017-08-26T05:54:45.363Z,2716
2017-08-26T05:55:55.319Z,2732
2017-08-26T05:57:04.947Z,2744
2017-08-26T05:58:15.215Z,2752
2017-08-26T05:59:25.487Z,2768
2017-08-26T06:00:35.757Z,2792
2017-08-26T06:01:45.705Z,2812
2017-08-26T06:02:55.652Z,2828
2017-08-26T06:04:05.922Z,2844
2017-08-26T06:05:16.194Z,2860
2017-08-26T06:06:26.462Z,2876
2017-08-26T06:07:36.729Z,2888
2017-08-26T06:08:46.679Z,2900
2017-08-26T06:09:56.623Z,2916
2017-08-26T06:11:06.572Z,2936
2017-08-26T06:12:16.837Z,2956
2017-08-26T06:13:26.790Z,2968
2017-08-26T06:14:37.062Z,2992
2017-08-26T06:15:46.693Z,3000
2017-08-26T06:16:56.970Z,3008
2017-08-26T06:18:07.254Z,3020
2017-08-26T06:19:17.520Z,3040
2017-08-26T06:20:27.792Z,3052
2017-08-26T06:21:38.057Z,3064
2017-08-26T06:22:48.331Z,3080
2017-08-26T06:23:58.596Z,3092
2017-08-26T06:25:08.223Z,3104
2017-08-26T06:26:18.496Z,3120
2017-08-26T06:27:28.444Z,3132
2017-08-26T06:28:38.717Z,3148
2017-08-26T06:29:48.988Z,3164
2017-08-26T06:30:59.257Z,3176
2017-08-26T06:32:09.204Z,3188
2017-08-26T06:33:19.151Z,3204
2017-08-26T06:34:29.418Z,3224
2017-08-26T06:35:39.688Z,3240
2017-08-26T06:36:49.972Z,3256
2017-08-26T06:38:00.238Z,3268
2017-08-26T06:39:10.512Z,3284
2017-08-26T06:40:20.492Z,3300
2017-08-26T06:41:30.766Z,3320
2017-08-26T06:42:41.033Z,3336
2017-08-26T06:43:51.310Z,3360
2017-08-26T06:45:01.586Z,3384
2017-08-26T06:46:11.543Z,3404
2017-08-26T06:47:21.496Z,3424
2017-08-26T06:48:31.445Z,3444
2017-08-26T06:49:41.714Z,3472
2017-08-26T06:50:51.981Z,3508
2017-08-26T06:52:02.256Z,3556
2017-08-26T06:53:11.880Z,3608
2017-08-26T06:54:22.151Z,3688
2017-08-26T06:55:32.423Z,3772
2017-08-26T06:56:42.381Z,3832
2017-08-26T06:57:52.650Z,3848
2017-08-26T06:59:02.279Z,3828
2017-08-26T07:00:12.545Z,3776
2017-08-26T07:01:22.495Z,3720
2017-08-26T07:02:32.120Z,3684
2017-08-26T07:03:42.406Z,3680
2017-08-26T07:04:52.672Z,3700
2017-08-26T07:06:02.939Z,3752
2017-08-26T07:07:12.883Z,3788
2017-08-26T07:08:23.153Z,3808
2017-08-26T07:09:33.425Z,3800
2017-08-26T07:10:43.386Z,3764
2017-08-26T07:11:53.384Z,3736
2017-08-26T07:13:03.330Z,3728
2017-08-26T07:14:13.624Z,3724
2017-08-26T07:15:23.890Z,3724
2017-08-26T07:16:34.171Z,3732
2017-08-26T07:17:44.119Z,3748
2017-08-26T07:18:54.065Z,3760
2017-08-26T07:20:04.336Z,3772
2017-08-26T07:21:14.610Z,3788
2017-08-26T07:22:24.558Z,3800
2017-08-26T07:23:34.504Z,3812
2017-08-26T07:24:44.768Z,3824
2017-08-26T07:25:55.047Z,3836
2017-08-26T07:27:05.316Z,3852
2017-08-26T07:28:15.268Z,3864
2017-08-26T07:29:25.538Z,3876
2017-08-26T07:30:35.489Z,3884
2017-08-26T07:31:44.791Z,3896
2017-08-26T07:32:54.741Z,3908
2017-08-26T07:34:04.685Z,3920
2017-08-26T07:35:14.961Z,3932
2017-08-26T07:36:25.229Z,3940
2017-08-26T07:37:35.178Z,3956
2017-08-26T07:38:45.446Z,3968
2017-08-26T07:39:55.726Z,3976
2017-08-26T07:41:05.694Z,3992
2017-08-26T07:42:15.645Z,4000
2017-08-26T07:43:25.939Z,4012
2017-08-26T07:44:36.218Z,4024
2017-08-26T07:45:46.487Z,4036
2017-08-26T07:46:56.759Z,4048
2017-08-26T07:48:05.743Z,4060
2017-08-26T07:49:15.688Z,4080
2017-08-26T07:50:25.966Z,4092
2017-08-26T07:51:35.913Z,4112
2017-08-26T07:52:46.181Z,4124
2017-08-26T07:53:56.447Z,4136
2017-08-26T07:55:06.399Z,4152
2017-08-26T07:56:16.666Z,4164
2017-08-26T07:57:26.943Z,4176
2017-08-26T07:58:37.216Z,4192
2017-08-26T07:59:47.488Z,4204
2017-08-26T08:00:57.757Z,4216
2017-08-26T08:02:07.381Z,4228
2017-08-26T08:03:16.688Z,4240
2017-08-26T08:04:26.965Z,4256
2017-08-26T08:05:37.233Z,4268
2017-08-26T08:06:47.180Z,4288
2017-08-26T08:07:57.449Z,4304
2017-08-26T08:09:07.718Z,4316
2017-08-26T08:10:17.993Z,4332
2017-08-26T08:11:27.620Z,4348
2017-08-26T08:12:37.887Z,4360
2017-08-26T08:13:48.157Z,4384
2017-08-26T08:14:58.428Z,4396
2017-08-26T08:16:08.718Z,4416
2017-08-26T08:17:18.361Z,4432
2017-08-26T08:18:27.987Z,4452
2017-08-26T08:19:37.618Z,4468
2017-08-26T08:20:47.890Z,4480
2017-08-26T08:21:58.162Z,4500
2017-08-26T08:23:08.434Z,4520
2017-08-26T08:24:18.391Z,4544
2017-08-26T08:25:28.681Z,4560
2017-08-26T08:26:38.627Z,4588
2017-08-26T08:27:48.615Z,4612
2017-08-26T08:28:58.883Z,4636
2017-08-26T08:30:09.182Z,4672
2017-08-26T08:31:21.111Z,4704
2017-08-26T08:32:31.060Z,4736
2017-08-26T08:33:41.009Z,4764
2017-08-26T08:34:50.963Z,4776
2017-08-26T08:36:00.587Z,4796
2017-08-26T08:37:10.858Z,4812
2017-08-26T08:38:20.805Z,4832
2017-08-26T08:39:31.077Z,4868
2017-08-26T08:40:41.040Z,4908
2017-08-26T08:41:51.016Z,4764
2017-08-26T08:43:00.647Z,4848
2017-08-26T08:44:10.594Z,4924
2017-08-26T08:45:20.878Z,4876
2017-08-26T08:46:31.155Z,5196
2017-08-26T08:47:41.432Z,5156
2017-08-26T08:48:51.059Z,5112
2017-08-26T08:50:00.686Z,5092
2017-08-26T08:51:10.324Z,5072
2017-08-26T08:52:20.274Z,5072
2017-08-26T08:53:30.551Z,5080
2017-08-26T08:54:40.499Z,5092
2017-08-26T08:55:50.456Z,5104
2017-08-26T08:57:00.084Z,5120
2017-08-26T08:58:10.035Z,5152
2017-08-26T08:59:20.306Z,5188
2017-08-26T09:00:30.583Z,5220
2017-08-26T09:01:40.220Z,5244
2017-08-26T09:02:50.501Z,5272
2017-08-26T09:04:00.126Z,5196
2017-08-26T09:05:10.108Z,5272
2017-08-26T09:06:20.387Z,5272
2017-08-26T09:07:30.657Z,5272
2017-08-26T09:08:40.928Z,5276
2017-08-26T09:09:51.609Z,5280
2017-08-26T09:11:01.561Z,5284
2017-08-26T09:12:11.512Z,5296
2017-08-26T09:13:21.785Z,5316
2017-08-26T09:14:31.737Z,5332
2017-08-26T09:15:42.011Z,5352
2017-08-26T09:16:52.289Z,5376
2017-08-26T09:18:02.236Z,5400
2017-08-26T09:19:12.185Z,5420
2017-08-26T09:20:22.456Z,5444
2017-08-26T09:21:32.406Z,5468
2017-08-26T09:22:42.674Z,5492
2017-08-26T09:23:52.624Z,5520
2017-08-26T09:25:02.250Z,5548
2017-08-26T09:26:12.523Z,5572
2017-08-26T09:27:22.149Z,5608
2017-08-26T09:28:32.104Z,5632
2017-08-26T09:29:42.380Z,5668
2017-08-26T09:30:52.326Z,5700
2017-08-26T09:32:02.274Z,5724
2017-08-26T09:33:12.546Z,5740
2017-08-26T09:34:22.181Z,5768
2017-08-26T09:35:32.454Z,5796
2017-08-26T09:36:42.723Z,5820
2017-08-26T09:37:52.989Z,5848
2017-08-26T09:39:03.272Z,5872
2017-08-26T09:40:13.555Z,5900
2017-08-26T09:41:23.193Z,5928
2017-08-26T09:42:33.470Z,5956
2017-08-26T09:43:43.422Z,5988
2017-08-26T09:44:53.051Z,6020
2017-08-26T09:46:02.682Z,6048
2017-08-26T09:47:12.957Z,6084
2017-08-26T09:48:22.913Z,6116
2017-08-26T09:49:32.563Z,6152
2017-08-26T09:50:42.510Z,6172
2017-08-26T09:51:52.788Z,6192
2017-08-26T09:53:02.735Z,6236
2017-08-26T09:54:13.008Z,6264
2017-08-26T09:55:23.278Z,6300
2017-08-26T09:56:32.913Z,6336
2017-08-26T09:57:42.863Z,6360
2017-08-26T09:58:53.142Z,6392
2017-08-26T10:00:03.089Z,6412
2017-08-26T10:01:12.396Z,6444
2017-08-26T10:02:22.669Z,6472
2017-08-26T10:03:32.963Z,6500
2017-08-26T10:04:42.929Z,6532
2017-08-26T10:05:52.891Z,6564
2017-08-26T10:07:03.164Z,6600
2017-08-26T10:08:13.434Z,6632
2017-08-26T10:09:23.709Z,6668
2017-08-26T10:10:33.981Z,6696
2017-08-26T10:11:44.257Z,6728
2017-08-26T10:12:53.887Z,6756
2017-08-26T10:14:03.514Z,6788
2017-08-26T10:15:13.465Z,6820
2017-08-26T10:16:23.736Z,6852
2017-08-26T10:17:34.011Z,6892
2017-08-26T10:18:44.283Z,6924
2017-08-26T10:19:54.245Z,6960
2017-08-26T10:21:04.192Z,7000
2017-08-26T10:22:14.472Z,7036
2017-08-26T10:23:24.745Z,7076
2017-08-26T10:24:35.014Z,7120
2017-08-26T10:25:45.293Z,7156
2017-08-26T10:26:55.244Z,7200
2017-08-26T10:28:05.518Z,7236
2017-08-26T10:29:15.470Z,7276
2017-08-26T10:30:25.422Z,7304
2017-08-26T10:31:35.386Z,7340
2017-08-26T10:32:45.659Z,7372
2017-08-26T10:33:55.936Z,7408
2017-08-26T10:35:06.208Z,7440
2017-08-26T10:36:16.479Z,7476
2017-08-26T10:37:26.439Z,7516
2017-08-26T10:38:36.712Z,7544
2017-08-26T10:39:46.340Z,7584
2017-08-26T10:40:56.621Z,7624
2017-08-26T10:42:06.901Z,7660
2017-08-26T10:43:16.853Z,7696
2017-08-26T10:44:26.804Z,7736
2017-08-26T10:45:37.192Z,7780
2017-08-26T10:46:47.147Z,7824
2017-08-26T10:47:57.421Z,7868
2017-08-26T10:49:07.049Z,7912
2017-08-26T10:50:16.999Z,7948
2017-08-26T10:51:27.270Z,7980
2017-08-26T10:52:37.542Z,8028
2017-08-26T10:53:47.171Z,8052
2017-08-26T10:54:57.442Z,8096
2017-08-26T10:56:07.407Z,8124
2017-08-26T10:57:17.686Z,8156
2017-08-26T10:58:27.636Z,8188
2017-08-26T10:59:37.586Z,8216
2017-08-26T11:00:47.860Z,8248
2017-08-26T11:01:57.486Z,8284
2017-08-26T11:03:07.126Z,8328
2017-08-26T11:04:17.078Z,8372
2017-08-26T11:05:27.038Z,8428
2017-08-26T11:06:37.310Z,8480
2017-08-26T11:07:47.594Z,8524
2017-08-26T11:08:57.549Z,8568
2017-08-26T11:10:07.188Z,8608
2017-08-26T11:11:17.139Z,8640
2017-08-26T11:12:27.419Z,8680
2017-08-26T11:13:37.053Z,8724
2017-08-26T11:14:47.326Z,8792
2017-08-26T11:15:57.597Z,8872
2017-08-26T11:17:07.229Z,8932
2017-08-26T11:18:17.185Z,9056
2017-08-26T11:19:27.461Z,9460
2017-08-26T11:20:37.732Z,10692
2017-08-26T11:21:48.005Z,38784
2017-08-26T11:22:57.956Z,63104
2017-08-26T11:24:07.266Z,62048
2017-08-26T11:25:17.222Z,63488
2017-08-26T11:26:27.175Z,58944
2017-08-26T11:27:37.133Z,58944
2017-08-26T11:28:47.093Z,59008
2017-08-26T11:29:56.727Z,58752
2017-08-26T11:31:07.006Z,59168
2017-08-26T11:32:17.283Z,60352
2017-08-26T11:33:27.565Z,57952
2017-08-26T11:34:37.524Z,58208
2017-08-26T11:35:47.810Z,58208
2017-08-26T11:36:57.766Z,59040
2017-08-26T11:38:08.055Z,58912
2017-08-26T11:39:18.013Z,59104
2017-08-26T11:40:27.652Z,63872
2017-08-26T11:41:37.931Z,65536
2017-08-26T11:42:47.906Z,67328
2017-08-26T11:43:57.866Z,67552
2017-08-26T11:45:07.827Z,66112
2017-08-26T11:46:18.115Z,65568
2017-08-26T11:47:28.075Z,62976
2017-08-26T11:48:38.366Z,66528
2017-08-26T11:49:48.647Z,65984
2017-08-26T11:50:58.607Z,63744
2017-08-26T11:52:08.247Z,66944
2017-08-26T11:53:18.534Z,63232
2017-08-26T11:54:28.496Z,62880
2017-08-26T11:55:38.781Z,61536
2017-08-26T11:56:49.061Z,63232
2017-08-26T11:57:59.023Z,64320
2017-08-26T11:59:08.340Z,63584
2017-08-26T12:00:18.626Z,64416
2017-08-26T12:01:28.612Z,63392
2017-08-26T12:02:38.901Z,63040
2017-08-26T12:03:48.866Z,64448
2017-08-26T12:04:59.151Z,63488
2017-08-26T12:06:08.800Z,64608
2017-08-26T12:07:18.442Z,63552
2017-08-26T12:08:28.419Z,64064
2017-08-26T12:09:38.705Z,63488
2017-08-26T12:10:49.000Z,61440
2017-08-26T12:11:59.286Z,62912
2017-08-26T12:13:09.254Z,62560
2017-08-26T12:14:19.546Z,63616
2017-08-26T12:15:29.837Z,62208
2017-08-26T12:16:40.124Z,65152
2017-08-26T12:17:50.090Z,67232
2017-08-26T12:19:00.377Z,64320
2017-08-26T12:20:10.669Z,64064
2017-08-26T12:21:19.995Z,64288
2017-08-26T12:22:30.284Z,60896
2017-08-26T12:23:40.579Z,55840
2017-08-26T12:24:50.871Z,50400
2017-08-26T12:26:00.836Z,60992
2017-08-26T12:27:11.125Z,62944
2017-08-26T12:28:21.411Z,63456
2017-08-26T12:29:30.734Z,63712
2017-08-26T12:30:41.020Z,61632
2017-08-26T12:31:50.989Z,59072
2017-08-26T12:33:01.273Z,55872
2017-08-26T12:34:11.562Z,57376
2017-08-26T12:35:21.850Z,61728
2017-08-26T12:36:31.494Z,57408
2017-08-26T12:37:41.456Z,58496
2017-08-26T12:38:51.751Z,56288
2017-08-26T12:40:01.718Z,50272
2017-08-26T12:41:11.686Z,53216
2017-08-26T12:42:21.974Z,58752
2017-08-26T12:43:32.260Z,60896
2017-08-26T12:44:41.931Z,61824
2017-08-26T12:45:51.908Z,63232
2017-08-26T12:47:02.223Z,59840
2017-08-26T12:48:12.188Z,58016
2017-08-26T12:49:22.168Z,56256
2017-08-26T12:50:32.458Z,58528
2017-08-26T12:51:42.747Z,62208
2017-08-26T12:52:53.033Z,63488
2017-08-26T12:54:02.682Z,63840
2017-08-26T12:55:12.654Z,60064
2017-08-26T12:56:22.947Z,60960
2017-08-26T12:57:32.916Z,64096
2017-08-26T12:58:43.205Z,65440
2017-08-26T12:59:52.850Z,66624
2017-08-26T13:01:02.816Z,66336
2017-08-26T13:02:13.105Z,63712
2017-08-26T13:03:23.393Z,65600
2017-08-26T13:04:33.683Z,66976
2017-08-26T13:05:43.971Z,68064
2017-08-26T13:06:54.265Z,72032
2017-08-26T13:08:03.921Z,73824
2017-08-26T13:09:14.214Z,67200
2017-08-26T13:10:24.186Z,61600
2017-08-26T13:11:34.476Z,65856
2017-08-26T13:12:44.447Z,59616
2017-08-26T13:13:54.738Z,58624
2017-08-26T13:15:04.723Z,58752
2017-08-26T13:16:14.698Z,62432
2017-08-26T13:17:24.986Z,63424
2017-08-26T13:18:35.275Z,61760
2017-08-26T13:19:45.568Z,65376
2017-08-26T13:20:55.538Z,60736
2017-08-26T13:22:04.862Z,63200
2017-08-26T13:23:15.161Z,63776
2017-08-26T13:24:25.450Z,63616
2017-08-26T13:25:34.776Z,64992
2017-08-26T13:26:45.079Z,63104
2017-08-26T13:27:54.732Z,63744
2017-08-26T13:29:05.026Z,65760
2017-08-26T13:30:15.318Z,64256
2017-08-26T13:31:25.283Z,64384
2017-08-26T13:32:35.579Z,62016
2017-08-26T13:33:45.545Z,61952
2017-08-26T13:34:55.834Z,57920
2017-08-26T13:36:06.178Z,58176
2017-08-26T13:37:16.470Z,57504
2017-08-26T13:38:26.116Z,53280
2017-08-26T13:39:36.091Z,52960
2017-08-26T13:40:45.738Z,51616
2017-08-26T13:41:56.029Z,52544
2017-08-26T13:43:06.318Z,53088
2017-08-26T13:44:16.608Z,51392
2017-08-26T13:45:26.904Z,48896
2017-08-26T13:46:36.549Z,49504
2017-08-26T13:47:46.843Z,51040
2017-08-26T13:48:57.133Z,49344
2017-08-26T13:50:07.148Z,46560
2017-08-26T13:51:16.801Z,46080
2017-08-26T13:52:26.776Z,45728
2017-08-26T13:53:37.084Z,45568
2017-08-26T13:54:47.052Z,47584
2017-08-26T13:55:57.358Z,49280
2017-08-26T13:57:07.330Z,50560
2017-08-26T13:58:17.296Z,52032
2017-08-26T13:59:27.599Z,54880
2017-08-26T14:00:37.565Z,58560
2017-08-26T14:01:47.860Z,59360
2017-08-26T14:02:57.825Z,59936
2017-08-26T14:04:07.150Z,62368
2017-08-26T14:05:17.497Z,63584
2017-08-26T14:06:27.467Z,63008
2017-08-26T14:07:37.775Z,65056
2017-08-26T14:08:48.065Z,63968
2017-08-26T14:09:58.038Z,62784
2017-08-26T14:11:07.685Z,63200
2017-08-26T14:12:17.973Z,64192
2017-08-26T14:13:28.270Z,63904
2017-08-26T14:14:38.557Z,65248
2017-08-26T14:15:48.203Z,68768
2017-08-26T14:16:58.174Z,69344
2017-08-26T14:18:08.143Z,67488
2017-08-26T14:19:18.112Z,67488
2017-08-26T14:20:28.401Z,66240
2017-08-26T14:21:38.689Z,66720
2017-08-26T14:22:48.658Z,65344
2017-08-26T14:23:58.948Z,62432
2017-08-26T14:25:08.920Z,63232
2017-08-26T14:26:19.211Z,64800
2017-08-26T14:27:29.505Z,63200
2017-08-26T14:28:39.471Z,61792
2017-08-26T14:29:49.118Z,62848
2017-08-26T14:30:59.087Z,63616
2017-08-26T14:32:09.387Z,63648
2017-08-26T14:33:19.683Z,61280
2017-08-26T14:34:29.653Z,62720
2017-08-26T14:35:39.620Z,62720
2017-08-26T14:36:49.916Z,60288
2017-08-26T14:38:00.208Z,58976
2017-08-26T14:39:10.512Z,60224
2017-08-26T14:40:20.482Z,63392
2017-08-26T14:41:30.773Z,60864
2017-08-26T14:42:41.066Z,60864
2017-08-26T14:43:51.353Z,63296
2017-08-26T14:45:01.644Z,63392
2017-08-26T14:46:11.297Z,63104
2017-08-26T14:47:21.584Z,58592
2017-08-26T14:48:31.582Z,57696
2017-08-26T14:49:41.871Z,58112
2017-08-26T14:50:52.160Z,57888
2017-08-26T14:52:02.129Z,58496
2017-08-26T14:53:12.098Z,57696
2017-08-26T14:54:22.393Z,59328
2017-08-26T14:55:32.681Z,58688
2017-08-26T14:56:42.658Z,55968
2017-08-26T14:57:52.624Z,54656
2017-08-26T14:59:02.921Z,56992
2017-08-26T15:00:12.889Z,56448
2017-08-26T15:01:23.177Z,57472
2017-08-26T15:02:33.465Z,55072
2017-08-26T15:03:43.756Z,54080
2017-08-26T15:04:53.079Z,54720
2017-08-26T15:06:03.391Z,54240
2017-08-26T15:07:13.688Z,53888
2017-08-26T15:08:23.976Z,53152
2017-08-26T15:09:33.942Z,53120
2017-08-26T15:10:43.591Z,53248
2017-08-26T15:11:53.877Z,52960
2017-08-26T15:13:03.857Z,52512
2017-08-26T15:14:14.149Z,52672
2017-08-26T15:15:24.448Z,51776
2017-08-26T15:16:34.427Z,51232
2017-08-26T15:17:44.718Z,48832
2017-08-26T15:18:54.689Z,48928
2017-08-26T15:20:04.654Z,49152
2017-08-26T15:21:14.301Z,49760
2017-08-26T15:22:24.266Z,46944
2017-08-26T15:23:34.556Z,49120
2017-08-26T15:24:44.530Z,48416
2017-08-26T15:25:54.817Z,49504
2017-08-26T15:27:04.462Z,48800
2017-08-26T15:28:14.757Z,32000
2017-08-26T15:29:25.046Z,12532
2017-08-26T15:30:35.334Z,10552
2017-08-26T15:31:45.298Z,10588
2017-08-26T15:32:55.588Z,10324
2017-08-26T15:34:04.911Z,10212
2017-08-26T15:35:15.201Z,9960
2017-08-26T15:36:25.488Z,10056
2017-08-26T15:37:35.774Z,10120
2017-08-26T15:38:46.059Z,9628
2017-08-26T15:39:56.028Z,9492
2017-08-26T15:41:06.055Z,9356
2017-08-26T15:42:16.340Z,9204
2017-08-26T15:43:26.306Z,9144
2017-08-26T15:44:36.590Z,9044
2017-08-26T15:45:46.884Z,8972
2017-08-26T15:46:57.168Z,8912
2017-08-26T15:48:07.129Z,8864